createdAt,value
2023-04-25T00:01:50.093Z,5.36
2023-04-25T00:04:16.928Z,5.32
2023-04-25T00:06:43.649Z,5.30
2023-04-25T00:09:12.012Z,5.30
2023-04-25T00:11:38.875Z,5.27
2023-04-25T00:14:05.755Z,5.24
2023-04-25T00:16:34.916Z,5.26
2023-04-25T00:19:04.118Z,5.28
2023-04-25T00:21:32.537Z,5.29
2023-04-25T00:23:59.185Z,5.27
2023-04-25T00:26:26.004Z,5.27
2023-04-25T00:28:52.903Z,5.27
2023-04-25T00:31:19.663Z,5.29
2023-04-25T00:33:46.238Z,5.30
2023-04-25T00:36:12.907Z,5.28
2023-04-25T00:38:39.530Z,5.27
2023-04-25T00:41:08.074Z,5.25
2023-04-25T00:43:35.153Z,5.23
2023-04-25T00:46:02.194Z,5.21
2023-04-25T00:48:28.704Z,5.18
2023-04-25T00:50:58.993Z,5.17
2023-04-25T00:53:27.444Z,5.16
2023-04-25T00:55:54.822Z,5.17
2023-04-25T00:58:22.701Z,5.18
2023-04-25T01:00:51.517Z,5.15
2023-04-25T01:03:20.695Z,5.15
2023-04-25T01:05:48.513Z,5.13
2023-04-25T01:08:15.522Z,5.12
2023-04-25T01:10:42.130Z,5.08
2023-04-25T01:13:09.230Z,5.07
2023-04-25T01:15:36.981Z,5.03
2023-04-25T01:18:06.318Z,5.00
2023-04-25T01:20:34.231Z,5.00
2023-04-25T01:23:01.466Z,4.95
2023-04-25T01:25:28.274Z,4.92
2023-04-25T01:27:54.789Z,4.90
2023-04-25T01:30:21.360Z,4.86
2023-04-25T01:32:49.125Z,4.84
2023-04-25T01:35:15.843Z,4.77
2023-04-25T01:37:43.897Z,4.73
2023-04-25T01:40:13.622Z,4.70
2023-04-25T01:42:43.260Z,4.67
2023-04-25T01:45:12.004Z,4.65
2023-04-25T01:47:40.559Z,4.62
2023-04-25T01:50:08.601Z,4.61
2023-04-25T01:52:36.760Z,4.60
2023-04-25T01:55:04.353Z,4.56
2023-04-25T01:57:33.392Z,4.54
2023-04-25T02:00:04.055Z,4.50
2023-04-25T02:02:39.749Z,4.45
2023-04-25T02:05:14.569Z,4.42
2023-04-25T02:07:43.203Z,4.40
2023-04-25T02:10:10.328Z,4.37
2023-04-25T02:12:45.643Z,4.34
2023-04-25T02:15:23.689Z,4.30
2023-04-25T02:17:57.462Z,4.26
2023-04-25T02:20:25.403Z,4.23
2023-04-25T02:22:52.480Z,4.20
2023-04-25T02:25:21.178Z,4.17
2023-04-25T02:27:49.253Z,4.12
2023-04-25T02:30:16.845Z,4.08
2023-04-25T02:32:43.496Z,4.05
2023-04-25T02:35:10.729Z,4.01
2023-04-25T02:37:40.578Z,3.98
2023-04-25T02:40:07.839Z,3.96
2023-04-25T02:42:34.931Z,3.95
2023-04-25T02:45:01.710Z,3.94
2023-04-25T02:47:28.351Z,3.94
2023-04-25T02:49:54.995Z,3.92
2023-04-25T02:52:22.237Z,3.92
2023-04-25T02:54:56.455Z,3.94
2023-04-25T02:57:23.337Z,3.95
2023-04-25T02:59:49.784Z,3.94
2023-04-25T03:02:16.477Z,3.95
2023-04-25T03:04:43.136Z,3.95
2023-04-25T03:07:09.832Z,3.94
2023-04-25T03:09:36.461Z,3.91
2023-04-25T03:12:03.389Z,3.91
2023-04-25T03:14:29.857Z,3.87
2023-04-25T03:16:56.699Z,3.84
2023-04-25T03:19:23.681Z,3.82
2023-04-25T03:21:50.280Z,3.78
2023-04-25T03:24:16.799Z,3.78
2023-04-25T03:26:43.232Z,3.75
2023-04-25T03:29:09.752Z,3.72
2023-04-25T03:31:38.393Z,3.69
2023-04-25T03:34:04.970Z,3.68
2023-04-25T03:36:31.515Z,3.69
2023-04-25T03:38:58.006Z,3.71
2023-04-25T03:41:24.480Z,3.74
2023-04-25T03:43:55.010Z,3.78
2023-04-25T03:46:21.908Z,3.83
2023-04-25T03:48:49.163Z,3.85
2023-04-25T03:51:21.775Z,3.88
2023-04-25T03:53:49.466Z,3.92
2023-04-25T03:56:36.477Z,3.97
2023-04-25T03:59:13.514Z,3.99
2023-04-25T04:01:39.986Z,4.01
2023-04-25T04:04:06.604Z,4.03
2023-04-25T04:06:34.837Z,4.03
2023-04-25T04:09:16.469Z,4.06
2023-04-25T04:11:44.131Z,4.09
2023-04-25T04:14:11.379Z,4.11
2023-04-25T04:16:41.623Z,4.10
2023-04-25T04:19:09.336Z,4.11
2023-04-25T04:21:37.085Z,4.11
2023-04-25T04:24:04.337Z,4.12
2023-04-25T04:26:39.674Z,4.13
2023-04-25T04:29:23.665Z,4.15
2023-04-25T04:32:02.000Z,4.17
2023-04-25T04:34:29.920Z,4.17
2023-04-25T04:36:57.045Z,4.18
2023-04-25T04:39:23.814Z,4.19
2023-04-25T04:42:02.771Z,4.20
2023-04-25T04:44:59.545Z,4.21
2023-04-25T04:47:40.433Z,4.24
2023-04-25T04:50:18.051Z,4.26
2023-04-25T04:53:05.235Z,4.27
2023-04-25T04:55:45.330Z,4.30
2023-04-25T04:58:41.051Z,4.33
2023-04-25T05:01:27.155Z,4.39
2023-04-25T05:04:04.972Z,4.41
2023-04-25T05:06:48.779Z,4.44
2023-04-25T05:09:28.295Z,4.44
2023-04-25T05:12:06.231Z,4.46
2023-04-25T05:14:51.204Z,4.47
2023-04-25T05:17:35.536Z,4.49
2023-04-25T05:20:21.737Z,4.50
2023-04-25T05:22:51.089Z,4.54
2023-04-25T05:25:21.836Z,4.56
2023-04-25T05:27:59.232Z,4.58
2023-04-25T05:30:40.457Z,4.60
2023-04-25T05:33:15.461Z,4.65
2023-04-25T05:35:42.541Z,4.71
2023-04-25T05:38:09.214Z,4.71
2023-04-25T05:40:55.682Z,4.76
2023-04-25T05:44:00.908Z,4.82
2023-04-25T05:46:34.007Z,4.86
2023-04-25T05:49:23.932Z,4.92
2023-04-25T05:52:20.197Z,4.99
2023-04-25T05:55:18.753Z,5.06
2023-04-25T05:57:46.195Z,5.11
2023-04-25T06:00:15.960Z,5.18
2023-04-25T06:02:44.299Z,5.22
2023-04-25T06:05:13.724Z,5.29
2023-04-25T06:07:40.430Z,5.40
2023-04-25T06:10:07.712Z,5.51
2023-04-25T06:12:34.389Z,5.57
2023-04-25T06:15:02.251Z,5.64
2023-04-25T06:17:31.519Z,5.72
2023-04-25T06:19:58.643Z,5.80
2023-04-25T06:22:25.132Z,5.89
2023-04-25T06:24:51.540Z,6.03
2023-04-25T06:27:18.007Z,6.16
2023-04-25T06:29:44.482Z,6.24
2023-04-25T06:32:10.881Z,6.32
2023-04-25T06:34:37.353Z,6.50
2023-04-25T06:37:03.829Z,6.81
2023-04-25T06:39:30.373Z,6.96
2023-04-25T06:41:56.777Z,6.96
2023-04-25T06:44:41.659Z,6.96
2023-04-25T06:47:09.768Z,6.98
2023-04-25T06:49:36.284Z,6.98
2023-04-25T06:52:03.627Z,6.93
2023-04-25T06:54:30.735Z,6.96
2023-04-25T06:57:05.350Z,6.95
2023-04-25T06:59:33.789Z,7.03
2023-04-25T07:02:00.549Z,7.14
2023-04-25T07:04:27.354Z,7.20
2023-04-25T07:06:56.707Z,7.20
2023-04-25T07:09:46.356Z,7.22
2023-04-25T07:12:12.871Z,7.27
2023-04-25T07:14:40.165Z,7.32
2023-04-25T07:17:08.016Z,7.36
2023-04-25T07:19:35.625Z,7.34
2023-04-25T07:22:03.092Z,7.34
2023-04-25T07:24:30.018Z,7.58
2023-04-25T07:26:57.629Z,8.00
2023-04-25T07:29:31.820Z,8.32
2023-04-25T07:32:00.380Z,8.51
2023-04-25T07:34:26.918Z,8.53
2023-04-25T07:36:54.724Z,8.60
2023-04-25T07:39:24.032Z,8.56
2023-04-25T07:41:53.771Z,8.52
2023-04-25T07:44:26.835Z,8.49
2023-04-25T07:46:53.286Z,8.56
2023-04-25T07:49:19.948Z,8.64
2023-04-25T07:51:46.422Z,8.72
2023-04-25T07:54:16.604Z,8.74
2023-04-25T07:56:52.938Z,8.81
2023-04-25T07:59:23.620Z,8.82
2023-04-25T08:01:50.330Z,8.76
2023-04-25T08:04:19.028Z,8.80
2023-04-25T08:06:54.645Z,8.95
2023-04-25T08:09:25.792Z,9.19
2023-04-25T08:11:53.437Z,9.51
2023-04-25T08:14:26.253Z,9.61
2023-04-25T08:16:53.097Z,9.73
2023-04-25T08:19:20.480Z,9.82
2023-04-25T08:21:47.414Z,9.83
2023-04-25T08:24:18.796Z,9.53
2023-04-25T08:26:45.318Z,9.01
2023-04-25T08:29:16.335Z,8.57
2023-04-25T08:31:43.306Z,8.43
2023-04-25T08:34:10.691Z,8.39
2023-04-25T08:36:45.891Z,8.37
2023-04-25T08:39:40.102Z,8.48
2023-04-25T08:42:28.678Z,8.52
2023-04-25T08:44:56.470Z,8.58
2023-04-25T08:47:29.237Z,8.71
2023-04-25T08:49:58.170Z,8.72
2023-04-25T08:52:25.615Z,8.82
2023-04-25T08:54:53.773Z,8.95
2023-04-25T08:57:22.001Z,9.38
2023-04-25T08:59:50.200Z,9.74
2023-04-25T09:02:19.711Z,10.24
2023-04-25T09:04:50.408Z,10.25
2023-04-25T09:07:19.574Z,10.14
2023-04-25T09:09:46.255Z,10.27
2023-04-25T09:12:15.364Z,10.36
2023-04-25T09:14:43.404Z,10.46
2023-04-25T09:17:20.188Z,11.09
2023-04-25T09:19:49.281Z,11.56
2023-04-25T09:22:23.733Z,11.91
2023-04-25T09:24:52.117Z,11.60
2023-04-25T09:27:21.516Z,11.10
2023-04-25T09:29:58.303Z,10.85
2023-04-25T09:32:25.851Z,10.91
2023-04-25T09:34:57.701Z,10.85
2023-04-25T09:37:30.596Z,10.87
2023-04-25T09:40:31.361Z,11.02
2023-04-25T09:43:26.371Z,11.03
2023-04-25T09:45:59.074Z,10.78
2023-04-25T09:48:27.772Z,10.30
2023-04-25T09:51:09.088Z,9.92
2023-04-25T09:53:40.973Z,9.81
2023-04-25T09:56:20.780Z,9.68
2023-04-25T09:58:51.374Z,9.74
2023-04-25T10:01:18.033Z,9.86
2023-04-25T10:04:02.301Z,10.00
2023-04-25T10:06:54.492Z,10.21
2023-04-25T10:09:22.353Z,10.34
2023-04-25T10:11:52.042Z,10.61
2023-04-25T10:14:19.803Z,10.84
2023-04-25T10:16:47.995Z,10.98
2023-04-25T10:19:14.760Z,11.09
2023-04-25T10:21:53.806Z,11.12
2023-04-25T10:24:21.538Z,11.21
2023-04-25T10:26:49.446Z,11.35
2023-04-25T10:29:24.189Z,11.50
2023-04-25T10:31:51.000Z,11.48
2023-04-25T10:34:18.663Z,11.36
2023-04-25T10:36:53.000Z,11.33
2023-04-25T10:39:28.186Z,11.34
2023-04-25T10:42:00.012Z,11.38
2023-04-25T10:44:30.648Z,11.51
2023-04-25T10:46:58.807Z,11.72
2023-04-25T10:49:36.293Z,11.91
2023-04-25T10:52:30.657Z,12.01
2023-04-25T10:54:58.236Z,12.30
2023-04-25T10:57:45.841Z,12.62
2023-04-25T11:00:14.314Z,12.73
2023-04-25T11:02:47.931Z,12.39
2023-04-25T11:05:36.339Z,12.03
2023-04-25T11:08:12.571Z,11.78
2023-04-25T11:10:41.199Z,11.67
2023-04-25T11:13:07.686Z,11.32
2023-04-25T11:15:34.230Z,10.90
2023-04-25T11:18:00.771Z,10.85
2023-04-25T11:20:29.560Z,10.78
2023-04-25T11:22:58.613Z,10.45
2023-04-25T11:25:25.487Z,10.25
2023-04-25T11:27:58.079Z,10.09
2023-04-25T11:30:26.422Z,9.92
2023-04-25T11:32:53.766Z,9.96
2023-04-25T11:35:23.610Z,9.89
2023-04-25T11:37:51.093Z,9.83
2023-04-25T11:40:17.770Z,9.83
2023-04-25T11:42:45.967Z,9.83
2023-04-25T11:45:12.940Z,9.90
2023-04-25T11:47:40.175Z,9.95
2023-04-25T11:50:08.934Z,10.16
2023-04-25T11:52:42.901Z,10.34
2023-04-25T11:55:16.317Z,10.62
2023-04-25T11:57:45.111Z,10.68
2023-04-25T12:00:17.504Z,11.02
2023-04-25T12:02:47.160Z,11.29
2023-04-25T12:07:48.652Z,11.69
2023-04-25T12:10:18.046Z,11.67
2023-04-25T12:12:46.862Z,11.49
2023-04-25T12:15:25.146Z,11.32
2023-04-25T12:17:53.755Z,11.00
2023-04-25T12:20:24.659Z,10.93
2023-04-25T12:22:52.319Z,10.90
2023-04-25T12:25:39.301Z,10.98
2023-04-25T12:28:16.494Z,10.84
2023-04-25T12:30:55.976Z,10.79
2023-04-25T12:33:23.540Z,10.75
2023-04-25T12:35:50.146Z,10.66
2023-04-25T12:38:28.104Z,10.82
2023-04-25T12:40:55.448Z,11.08
2023-04-25T12:43:22.808Z,11.17
2023-04-25T12:45:53.849Z,11.15
2023-04-25T12:48:21.024Z,11.14
2023-04-25T12:50:51.480Z,11.21
2023-04-25T12:53:19.839Z,11.08
2023-04-25T12:55:49.819Z,11.42
2023-04-25T12:58:18.585Z,11.40
2023-04-25T13:00:45.713Z,11.57
2023-04-25T13:03:13.605Z,11.76
2023-04-25T13:05:40.705Z,11.82
2023-04-25T13:08:07.269Z,11.72
2023-04-25T13:10:34.966Z,11.54
2023-04-25T13:13:02.212Z,11.32
2023-04-25T13:15:29.473Z,11.08
2023-04-25T13:17:57.091Z,10.99
2023-04-25T13:20:23.894Z,10.96
2023-04-25T13:22:50.836Z,10.95
2023-04-25T13:25:17.516Z,11.11
2023-04-25T13:27:45.165Z,11.06
2023-04-25T13:30:12.429Z,11.18
2023-04-25T13:32:39.264Z,11.38
2023-04-25T13:35:10.451Z,11.31
2023-04-25T13:37:38.231Z,11.15
2023-04-25T13:40:07.285Z,10.94
2023-04-25T13:42:33.715Z,10.82
2023-04-25T13:45:00.202Z,10.82
2023-04-25T13:47:27.617Z,10.66
2023-04-25T13:49:55.514Z,10.50
2023-04-25T13:52:22.102Z,10.32
2023-04-25T13:54:48.683Z,10.19
2023-04-25T13:57:15.259Z,10.30
2023-04-25T13:59:41.837Z,10.52
2023-04-25T14:02:08.381Z,10.51
2023-04-25T14:04:34.916Z,10.46
2023-04-25T14:07:03.062Z,10.41
2023-04-25T14:09:30.033Z,10.41
2023-04-25T14:11:57.371Z,10.29
2023-04-25T14:14:24.530Z,10.25
2023-04-25T14:16:52.551Z,10.21
2023-04-25T14:19:21.582Z,10.16
2023-04-25T14:21:48.680Z,10.03
2023-04-25T14:24:15.321Z,10.05
2023-04-25T14:26:42.827Z,10.09
2023-04-25T14:29:12.705Z,10.00
2023-04-25T14:31:41.079Z,9.95
2023-04-25T14:34:08.202Z,10.12
2023-04-25T14:36:35.025Z,10.47
2023-04-25T14:39:01.964Z,10.81
2023-04-25T14:41:28.568Z,10.78
2023-04-25T14:43:55.495Z,10.78
2023-04-25T14:46:25.826Z,10.63
2023-04-25T14:48:52.566Z,10.48
2023-04-25T14:51:19.134Z,10.30
2023-04-25T14:53:45.609Z,10.28
2023-04-25T14:56:12.228Z,10.28
2023-04-25T14:58:41.356Z,10.33
2023-04-25T15:01:08.098Z,10.42
2023-04-25T15:03:35.036Z,10.49
2023-04-25T15:06:01.738Z,10.57
2023-04-25T15:08:31.160Z,10.62
2023-04-25T15:10:57.790Z,10.56
2023-04-25T15:13:24.372Z,10.49
2023-04-25T15:15:52.218Z,10.59
2023-04-25T15:18:22.858Z,10.52
2023-04-25T15:20:50.437Z,10.45
2023-04-25T15:23:17.948Z,10.33
2023-04-25T15:25:44.585Z,10.37
2023-04-25T15:28:11.144Z,10.34
2023-04-25T15:30:38.129Z,10.22
2023-04-25T15:33:04.668Z,10.17
2023-04-25T15:35:31.129Z,10.23
2023-04-25T15:37:57.678Z,10.28
2023-04-25T15:40:24.149Z,10.23
2023-04-25T15:42:51.761Z,10.19
2023-04-25T15:45:21.438Z,10.25
2023-04-25T15:47:48.110Z,10.14
2023-04-25T15:50:17.506Z,10.07
2023-04-25T15:52:44.182Z,10.03
2023-04-25T15:55:12.789Z,10.06
2023-04-25T15:57:39.440Z,10.21
2023-04-25T16:00:13.000Z,10.27
2023-04-25T16:02:41.612Z,10.24
2023-04-25T16:05:09.332Z,10.21
2023-04-25T16:07:36.276Z,10.10
2023-04-25T16:10:03.390Z,10.04
2023-04-25T16:12:31.155Z,9.88
2023-04-25T16:14:58.213Z,9.76
2023-04-25T16:17:25.382Z,9.75
2023-04-25T16:19:51.915Z,9.76
2023-04-25T16:22:18.435Z,9.74
2023-04-25T16:24:45.166Z,9.75
2023-04-25T16:27:11.931Z,9.68
2023-04-25T16:29:38.784Z,9.69
2023-04-25T16:32:05.862Z,9.75
2023-04-25T16:34:32.835Z,9.79
2023-04-25T16:36:59.399Z,9.79
2023-04-25T16:39:25.874Z,9.73
2023-04-25T16:41:53.073Z,9.70
2023-04-25T16:44:19.609Z,9.59
2023-04-25T16:46:46.177Z,9.56
2023-04-25T16:49:12.679Z,9.54
2023-04-25T16:51:39.128Z,9.59
2023-04-25T16:54:05.694Z,9.61
2023-04-25T16:56:32.169Z,9.55
2023-04-25T16:58:58.636Z,9.54
2023-04-25T17:01:25.222Z,9.57
2023-04-25T17:03:52.016Z,9.54
2023-04-25T17:06:18.569Z,9.53
2023-04-25T17:08:45.033Z,9.44
2023-04-25T17:11:11.739Z,9.33
2023-04-25T17:13:38.222Z,9.18
2023-04-25T17:16:05.326Z,9.07
2023-04-25T17:18:32.623Z,8.96
2023-04-25T17:20:59.394Z,8.92
2023-04-25T17:23:26.261Z,8.84
2023-04-25T17:25:53.398Z,8.78
2023-04-25T17:28:19.834Z,8.76
2023-04-25T17:30:46.269Z,8.69
2023-04-25T17:33:12.819Z,8.70
2023-04-25T17:35:39.280Z,8.70
2023-04-25T17:38:06.222Z,8.67
2023-04-25T17:40:32.750Z,8.70
2023-04-25T17:42:59.294Z,8.71
2023-04-25T17:45:25.923Z,8.65
2023-04-25T17:47:52.493Z,8.60
2023-04-25T17:50:19.422Z,8.49
2023-04-25T17:52:48.225Z,8.43
2023-04-25T17:55:14.758Z,8.40
2023-04-25T17:57:41.207Z,8.30
2023-04-25T18:00:09.252Z,8.19
2023-04-25T18:02:45.172Z,8.10
2023-04-25T18:05:11.754Z,8.05
2023-04-25T18:07:38.299Z,8.00
2023-04-25T18:10:05.852Z,7.93
2023-04-25T18:12:34.032Z,7.94
2023-04-25T18:15:01.740Z,7.93
2023-04-25T18:17:28.629Z,7.91
2023-04-25T18:19:55.493Z,7.86
2023-04-25T18:22:22.396Z,7.83
2023-04-25T18:24:50.658Z,7.81
2023-04-25T18:27:17.317Z,7.79
2023-04-25T18:29:45.331Z,7.76
2023-04-25T18:32:12.214Z,7.74
2023-04-25T18:34:41.496Z,7.72
2023-04-25T18:37:08.413Z,7.70
2023-04-25T18:39:34.895Z,7.65
2023-04-25T18:42:06.481Z,7.62
2023-04-25T18:44:36.406Z,7.57
2023-04-25T18:47:03.032Z,7.52
2023-04-25T18:49:30.860Z,7.45
2023-04-25T18:51:57.934Z,7.40
2023-04-25T18:54:24.501Z,7.35
2023-04-25T18:56:51.323Z,7.31
2023-04-25T18:59:18.192Z,7.24
2023-04-25T19:01:44.665Z,7.20
2023-04-25T19:04:11.531Z,7.13
2023-04-25T19:06:38.230Z,7.08
2023-04-25T19:09:04.719Z,7.03
2023-04-25T19:11:31.178Z,6.98
2023-04-25T19:13:57.699Z,6.96
2023-04-25T19:16:26.168Z,6.91
2023-04-25T19:18:55.266Z,6.86
2023-04-25T19:21:22.600Z,6.80
2023-04-25T19:23:49.118Z,6.72
2023-04-25T19:26:18.892Z,6.66
2023-04-25T19:28:45.417Z,6.63
2023-04-25T19:31:12.975Z,6.60
2023-04-25T19:33:39.513Z,6.53
2023-04-25T19:36:05.956Z,6.45
2023-04-25T19:38:32.488Z,6.39
2023-04-25T19:40:59.145Z,6.35
2023-04-25T19:43:26.115Z,6.30
2023-04-25T19:45:52.774Z,6.27
2023-04-25T19:48:19.830Z,6.21
2023-04-25T19:50:46.406Z,6.15
2023-04-25T19:53:12.860Z,6.09
2023-04-25T19:55:39.335Z,6.07
2023-04-25T19:58:06.886Z,6.02
2023-04-25T20:00:33.388Z,5.98
2023-04-25T20:03:00.067Z,5.96
2023-04-25T20:05:27.360Z,5.89
2023-04-25T20:07:53.878Z,5.85
2023-04-25T20:10:20.455Z,5.82
2023-04-25T20:12:47.013Z,5.76
2023-04-25T20:15:13.492Z,5.73
2023-04-25T20:17:43.249Z,5.64
2023-04-25T20:20:11.360Z,5.61
2023-04-25T20:22:40.178Z,5.56
2023-04-25T20:25:08.664Z,5.53
2023-04-25T20:27:37.818Z,5.49
2023-04-25T20:30:09.281Z,5.48
2023-04-25T20:32:36.519Z,5.43
2023-04-25T20:35:04.981Z,5.41
2023-04-25T20:37:31.695Z,5.38
2023-04-25T20:40:02.493Z,5.32
2023-04-25T20:42:28.986Z,5.27
2023-04-25T20:44:55.912Z,5.19
2023-04-25T20:47:22.512Z,5.12
2023-04-25T20:49:49.049Z,5.08
2023-04-25T20:52:16.986Z,5.01
2023-04-25T20:54:43.540Z,4.95
2023-04-25T20:57:10.019Z,4.92
2023-04-25T20:59:36.442Z,4.84
2023-04-25T21:02:03.004Z,4.81
2023-04-25T21:04:29.538Z,4.78
2023-04-25T21:06:55.998Z,4.73
2023-04-25T21:09:22.480Z,4.72
2023-04-25T21:11:49.028Z,4.67
2023-04-25T21:14:16.429Z,4.63
2023-04-25T21:16:43.023Z,4.58
2023-04-25T21:19:09.620Z,4.55
2023-04-25T21:21:36.208Z,4.51
2023-04-25T21:24:02.881Z,4.53
2023-04-25T21:26:29.399Z,4.61
2023-04-25T21:28:55.925Z,4.60
2023-04-25T21:31:22.963Z,4.62
2023-04-25T21:33:49.410Z,4.56
2023-04-25T21:36:15.899Z,4.53
2023-04-25T21:38:42.333Z,4.47
2023-04-25T21:41:08.913Z,4.44
2023-04-25T21:43:36.596Z,4.42
2023-04-25T21:48:32.405Z,4.35
2023-04-25T21:50:59.151Z,4.32
2023-04-25T21:53:26.708Z,4.26
2023-04-25T21:55:53.211Z,4.22
2023-04-25T21:58:19.634Z,4.16
2023-04-25T22:00:46.242Z,4.17
2023-04-25T22:03:15.807Z,4.12
2023-04-25T22:05:42.360Z,4.07
2023-04-25T22:08:08.881Z,4.00
2023-04-25T22:10:35.470Z,3.96
2023-04-25T22:13:01.944Z,3.91
2023-04-25T22:15:29.458Z,3.89
2023-04-25T22:17:56.069Z,3.84
2023-04-25T22:20:25.908Z,3.80
2023-04-25T22:22:53.054Z,3.76
2023-04-25T22:25:19.576Z,3.70
2023-04-25T22:27:46.053Z,3.67
2023-04-25T22:30:15.679Z,3.61
2023-04-25T22:32:42.512Z,3.52
2023-04-25T22:35:10.299Z,3.46
2023-04-25T22:37:36.828Z,3.45
2023-04-25T22:40:08.813Z,3.41
2023-04-25T22:42:43.120Z,3.35
2023-04-25T22:45:10.850Z,3.34
2023-04-25T22:47:38.421Z,3.35
2023-04-25T22:50:13.180Z,3.32
2023-04-25T22:52:40.434Z,3.30
2023-04-25T22:55:07.135Z,3.25
2023-04-25T22:57:36.828Z,3.23
2023-04-25T23:00:08.757Z,3.22
2023-04-25T23:02:35.537Z,3.23
2023-04-25T23:05:02.484Z,3.20
2023-04-25T23:07:29.149Z,3.15
2023-04-25T23:09:55.639Z,3.11
2023-04-25T23:12:22.648Z,3.02
2023-04-25T23:14:50.638Z,2.98
2023-04-25T23:17:17.081Z,2.96
2023-04-25T23:19:43.695Z,2.98
2023-04-25T23:22:10.210Z,3.08
2023-04-25T23:24:38.980Z,3.12
2023-04-25T23:27:05.408Z,3.13
2023-04-25T23:29:33.965Z,3.14
2023-04-25T23:32:01.585Z,3.16
2023-04-25T23:34:32.298Z,3.18
2023-04-25T23:37:01.219Z,3.20
2023-04-25T23:39:28.490Z,3.23
2023-04-25T23:41:55.147Z,3.26
2023-04-25T23:44:22.291Z,3.26
2023-04-25T23:46:49.754Z,3.27
2023-04-25T23:49:16.245Z,3.29
2023-04-25T23:51:42.965Z,3.32
2023-04-25T23:54:09.490Z,3.31
2023-04-25T23:56:36.070Z,3.33
2023-04-25T23:59:02.718Z,3.30
